Time;durP1;ratioP1;P1;durP2;ratioP2;P2;SDS_P1;SDS_P2;PMS_P1;PMS_P2;Temp;Humidity;BMP_temperature;BMP_pressure;BME280_temperature;BME280_humidity;BME280_pressure;Samples;Min_cycle;Max_cycle;Signal;HPM_P1;HPM_P2
2022/04/20 00:01:42;;;;;;;;;;;24.00;39.90;;;;;;1530743;76;692;-66
2022/04/20 00:03:44;;;;;;;;;;;24.10;40.10;;;;;;1529227;78;710;-66
2022/04/20 00:05:46;;;;;;;;;;;24.00;40.10;;;;;;1552553;76;671;-66
2022/04/20 00:07:48;;;;;;;;;;;24.00;40.10;;;;;;1555321;76;726;-66
2022/04/20 00:09:50;;;;;;;;;;;24.10;40.20;;;;;;1555344;76;1146;-68
2022/04/20 00:11:52;;;;;;;;;;;24.00;40.20;;;;;;1555393;76;782;-65
2022/04/20 00:13:53;;;;;;;;;;;24.00;40.20;;;;;;1555279;76;1935;-66
2022/04/20 00:15:55;;;;;;;;;;;24.10;40.40;;;;;;1555411;76;688;-66
2022/04/20 00:17:57;;;;;;;;;;;24.00;40.20;;;;;;1555339;76;675;-66
2022/04/20 00:19:59;;;;;;;;;;;24.00;40.40;;;;;;1538105;76;1168;-69
2022/04/20 00:22:01;;;;;;;;;;;24.10;40.50;;;;;;1544057;76;691;-66
2022/04/20 00:24:03;;;;;;;;;;;24.00;40.40;;;;;;1555450;76;727;-69
2022/04/20 00:26:05;;;;;;;;;;;24.00;40.50;;;;;;1555374;76;737;-64
2022/04/20 00:28:07;;;;;;;;;;;24.00;40.40;;;;;;1555387;76;677;-66
2022/04/20 00:30:09;;;;;;;;;;;24.00;40.50;;;;;;1555337;76;1190;-66
2022/04/20 00:32:11;;;;;;;;;;;24.00;40.50;;;;;;1555464;76;628;-65
2022/04/20 00:34:13;;;;;;;;;;;24.00;40.50;;;;;;1555212;76;1925;-65
2022/04/20 00:36:15;;;;;;;;;;;24.00;40.60;;;;;;1555429;76;693;-65
2022/04/20 00:38:17;;;;;;;;;;;23.90;40.60;;;;;;1555311;76;703;-66
2022/04/20 00:40:19;;;;;;;;;;;24.00;40.50;;;;;;1557525;75;1126;-68
2022/04/20 00:42:21;;;;;;;;;;;23.90;40.60;;;;;;1562265;75;623;-67
2022/04/20 00:44:23;;;;;;;;;;;24.00;40.70;;;;;;1542142;76;719;-70
2022/04/20 00:46:25;;;;;;;;;;;24.00;40.70;;;;;;1555325;76;602;-67
2022/04/20 00:48:27;;;;;;;;;;;24.00;40.60;;;;;;1555539;76;529;-66
2022/04/20 00:50:29;;;;;;;;;;;24.00;40.70;;;;;;1554936;76;1151;-65
2022/04/20 00:52:31;;;;;;;;;;;24.00;40.70;;;;;;1555436;76;767;-65
2022/04/20 00:54:33;;;;;;;;;;;24.00;40.70;;;;;;1555258;76;1937;-68
2022/04/20 00:56:35;;;;;;;;;;;24.00;40.70;;;;;;1555418;76;628;-68
2022/04/20 00:58:38;;;;;;;;;;;24.00;40.70;;;;;;1555474;76;670;-65
2022/04/20 01:00:40;;;;;;;;;;;24.00;40.70;;;;;;1555191;76;1207;-67
2022/04/20 01:02:42;;;;;;;;;;;23.90;40.70;;;;;;1555450;76;668;-65
2022/04/20 01:04:43;;;;;;;;;;;24.00;40.70;;;;;;1555069;76;722;-67
2022/04/20 01:06:45;;;;;;;;;;;24.00;40.80;;;;;;1543852;76;714;-66
2022/04/20 01:08:47;;;;;;;;;;;24.00;40.70;;;;;;1535863;77;744;-66
2022/04/20 01:10:49;;;;;;;;;;;23.90;40.80;;;;;;1521571;76;2086;-72
2022/04/20 01:12:51;;;;;;;;;;;23.90;40.70;;;;;;1489385;79;702;-74
2022/04/20 01:14:53;;;;;;;;;;;23.90;40.80;;;;;;1489968;80;1958;-72
2022/04/20 01:16:55;;;;;;;;;;;24.00;40.80;;;;;;1514449;78;781;-71
2022/04/20 01:18:56;;;;;;;;;;;24.00;40.80;;;;;;1514122;78;723;-72
2022/04/20 01:20:59;;;;;;;;;;;24.00;40.80;;;;;;1501638;78;1157;-71
2022/04/20 01:23:01;;;;;;;;;;;24.00;40.90;;;;;;1497031;78;726;-73
2022/04/20 01:25:03;;;;;;;;;;;23.90;40.90;;;;;;1504554;78;690;-74
2022/04/20 01:27:05;;;;;;;;;;;23.90;40.90;;;;;;1502084;79;708;-73
2022/04/20 01:29:07;;;;;;;;;;;23.90;40.90;;;;;;1501997;79;666;-71
2022/04/20 01:31:11;;;;;;;;;;;23.90;40.90;;;;;;1503356;79;1167;-71
2022/04/20 01:33:13;;;;;;;;;;;23.90;41.00;;;;;;1502836;79;1948;-72
2022/04/20 01:35:15;;;;;;;;;;;23.90;41.00;;;;;;1514422;78;1923;-72
2022/04/20 01:37:16;;;;;;;;;;;23.90;41.00;;;;;;1490061;80;743;-73
2022/04/20 01:39:18;;;;;;;;;;;23.90;41.10;;;;;;1487146;80;747;-73
2022/04/20 01:41:20;;;;;;;;;;;24.00;41.10;;;;;;1488219;79;1129;-73
2022/04/20 01:43:22;;;;;;;;;;;23.90;41.10;;;;;;1489963;80;649;-72
2022/04/20 01:45:24;;;;;;;;;;;23.90;41.20;;;;;;1489828;80;652;-72
2022/04/20 01:47:26;;;;;;;;;;;23.90;41.10;;;;;;1489994;80;676;-72
2022/04/20 01:49:28;;;;;;;;;;;23.90;41.10;;;;;;1490542;79;692;-72
2022/04/20 01:53:50;;;;;;;;;;;23.80;41.00;;;;;;1489871;80;1584;-73
2022/04/20 01:55:53;;;;;;;;;;;23.80;41.00;;;;;;1477704;78;1946;-74
2022/04/20 01:57:55;;;;;;;;;;;23.90;41.10;;;;;;1465918;81;569;-73
2022/04/20 01:59:57;;;;;;;;;;;23.90;41.20;;;;;;1489824;80;1140;-73
2022/04/20 02:04:19;;;;;;;;;;;23.90;41.10;;;;;;1476998;78;752;-74
2022/04/20 02:06:20;;;;;;;;;;;23.80;41.00;;;;;;1519520;78;667;-72
2022/04/20 02:08:22;;;;;;;;;;;23.90;41.20;;;;;;1519597;78;684;-72
2022/04/20 02:10:24;;;;;;;;;;;23.80;41.10;;;;;;1518094;78;1136;-73
2022/04/20 02:12:26;;;;;;;;;;;23.80;41.10;;;;;;1518091;78;694;-74
2022/04/20 02:14:28;;;;;;;;;;;23.90;41.20;;;;;;1517065;78;1944;-73
2022/04/20 02:16:30;;;;;;;;;;;23.90;41.40;;;;;;1518118;78;652;-71
2022/04/20 02:18:32;;;;;;;;;;;24.00;41.20;;;;;;1518170;78;571;-71
2022/04/20 02:20:34;;;;;;;;;;;24.00;41.00;;;;;;1486988;78;1213;-72
2022/04/20 02:22:36;;;;;;;;;;;23.90;41.00;;;;;;1525700;78;668;-73
2022/04/20 02:24:38;;;;;;;;;;;23.90;41.00;;;;;;1544985;77;681;-70
2022/04/20 02:26:40;;;;;;;;;;;24.00;41.00;;;;;;1517518;78;615;-69
2022/04/20 02:28:42;;;;;;;;;;;24.00;41.00;;;;;;1545122;77;619;-70
2022/04/20 02:30:44;;;;;;;;;;;24.00;41.00;;;;;;1516835;77;1198;-71
2022/04/20 02:32:46;;;;;;;;;;;24.10;41.00;;;;;;1514503;78;657;-72
2022/04/20 02:34:48;;;;;;;;;;;24.20;41.00;;;;;;1514164;78;1949;-70
2022/04/20 02:36:50;;;;;;;;;;;24.00;41.00;;;;;;1514515;78;657;-70
2022/04/20 02:38:52;;;;;;;;;;;24.10;41.30;;;;;;1514448;78;639;-70
2022/04/20 02:40:53;;;;;;;;;;;24.00;41.50;;;;;;1514374;77;1266;-70
2022/04/20 02:42:56;;;;;;;;;;;23.90;41.60;;;;;;1515361;77;664;-71
2022/04/20 02:44:58;;;;;;;;;;;23.80;41.70;;;;;;1514823;77;591;-69
2022/04/20 02:46:59;;;;;;;;;;;23.80;41.80;;;;;;1520605;77;701;-69
2022/04/20 02:49:02;;;;;;;;;;;23.70;42.10;;;;;;1491783;78;757;-70
2022/04/20 02:51:04;;;;;;;;;;;23.70;42.10;;;;;;1498453;79;1141;-70
2022/04/20 02:53:06;;;;;;;;;;;23.70;42.30;;;;;;1514425;78;771;-71
2022/04/20 02:55:08;;;;;;;;;;;23.70;42.40;;;;;;1489744;78;1931;-70
2022/04/20 02:57:10;;;;;;;;;;;23.60;42.30;;;;;;1489763;79;758;-71
2022/04/20 02:59:12;;;;;;;;;;;23.60;42.40;;;;;;1489737;79;727;-70
2022/04/20 03:01:14;;;;;;;;;;;23.70;42.70;;;;;;1489438;80;1103;-70
2022/04/20 03:03:15;;;;;;;;;;;23.60;42.50;;;;;;1502576;79;703;-70
2022/04/20 03:05:17;;;;;;;;;;;23.70;42.60;;;;;;1510774;78;678;-70
2022/04/20 03:07:19;;;;;;;;;;;23.60;42.60;;;;;;1501475;78;731;-71
2022/04/20 03:09:21;;;;;;;;;;;23.70;42.70;;;;;;1495266;78;700;-71
2022/04/20 03:11:23;;;;;;;;;;;23.60;42.50;;;;;;1478060;79;1095;-71
2022/04/20 03:13:26;;;;;;;;;;;23.60;42.40;;;;;;1477968;79;698;-72
2022/04/20 03:15:27;;;;;;;;;;;23.60;42.40;;;;;;1527196;78;1909;-71
2022/04/20 03:17:29;;;;;;;;;;;23.60;42.50;;;;;;1530532;78;664;-70
2022/04/20 03:19:31;;;;;;;;;;;23.60;42.60;;;;;;1514133;78;753;-71
2022/04/20 03:21:33;;;;;;;;;;;23.70;42.70;;;;;;1492475;80;1165;-71
2022/04/20 03:23:35;;;;;;;;;;;23.70;42.70;;;;;;1496128;79;778;-70
2022/04/20 03:25:37;;;;;;;;;;;23.70;42.60;;;;;;1503327;78;723;-70
2022/04/20 03:27:39;;;;;;;;;;;23.70;42.40;;;;;;1502558;79;680;-71
2022/04/20 03:29:41;;;;;;;;;;;23.70;42.40;;;;;;1503471;79;1147;-71
2022/04/20 03:31:43;;;;;;;;;;;23.70;42.40;;;;;;1505106;79;634;-71
2022/04/20 03:33:45;;;;;;;;;;;23.70;42.40;;;;;;1505149;79;707;-71
2022/04/20 03:35:47;;;;;;;;;;;23.70;42.30;;;;;;1503337;79;1930;-71
2022/04/20 03:37:49;;;;;;;;;;;23.70;42.20;;;;;;1507539;78;644;-67
2022/04/20 03:39:51;;;;;;;;;;;23.70;42.40;;;;;;1518467;78;1122;-67
2022/04/20 03:41:54;;;;;;;;;;;23.70;42.60;;;;;;1511615;78;663;-67
2022/04/20 03:43:55;;;;;;;;;;;23.70;42.60;;;;;;1518467;78;698;-67
2022/04/20 03:45:57;;;;;;;;;;;23.70;42.70;;;;;;1513437;78;726;-67
2022/04/20 03:47:59;;;;;;;;;;;23.70;42.60;;;;;;1514770;78;668;-68
2022/04/20 03:50:01;;;;;;;;;;;23.70;42.70;;;;;;1516019;78;1187;-69
2022/04/20 03:52:03;;;;;;;;;;;23.70;42.70;;;;;;1518566;78;752;-67
2022/04/20 03:54:05;;;;;;;;;;;23.80;42.70;;;;;;1517957;77;828;-68
2022/04/20 03:56:07;;;;;;;;;;;23.80;42.60;;;;;;1512063;78;1939;-70
2022/04/20 03:58:09;;;;;;;;;;;23.70;42.80;;;;;;1514528;78;687;-68
2022/04/20 04:00:12;;;;;;;;;;;23.70;42.90;;;;;;1518410;78;1159;-67
2022/04/20 04:02:14;;;;;;;;;;;23.80;42.90;;;;;;1487502;78;737;-66
2022/04/20 04:04:16;;;;;;;;;;;23.80;42.90;;;;;;1513252;78;646;-67
2022/04/20 04:06:17;;;;;;;;;;;23.80;43.00;;;;;;1505327;78;711;-66
2022/04/20 04:08:20;;;;;;;;;;;23.80;42.90;;;;;;1511758;78;711;-68
2022/04/20 04:10:22;;;;;;;;;;;23.80;43.00;;;;;;1504980;79;1086;-66
2022/04/20 04:12:24;;;;;;;;;;;23.80;43.00;;;;;;1524191;78;765;-67
2022/04/20 04:14:26;;;;;;;;;;;23.90;42.90;;;;;;1530290;78;738;-67
2022/04/20 04:16:28;;;;;;;;;;;23.90;43.00;;;;;;1530405;78;1955;-69
2022/04/20 04:18:29;;;;;;;;;;;23.80;42.90;;;;;;1529138;78;733;-67
2022/04/20 04:20:31;;;;;;;;;;;23.80;42.90;;;;;;1493380;79;1164;-67
2022/04/20 04:22:35;;;;;;;;;;;23.80;42.80;;;;;;1513179;78;711;-67
2022/04/20 04:24:37;;;;;;;;;;;23.80;42.80;;;;;;1506280;78;697;-68
2022/04/20 04:26:40;;;;;;;;;;;23.80;42.70;;;;;;1515462;78;678;-67
2022/04/20 04:28:42;;;;;;;;;;;23.90;42.80;;;;;;1518685;78;796;-66
2022/04/20 04:30:45;;;;;;;;;;;23.90;42.90;;;;;;1512898;78;1158;-66
2022/04/20 04:32:47;;;;;;;;;;;23.90;43.00;;;;;;1518193;78;697;-64
2022/04/20 04:34:49;;;;;;;;;;;23.80;42.80;;;;;;1523304;78;691;-66
2022/04/20 04:36:51;;;;;;;;;;;23.90;42.90;;;;;;1522685;78;1948;-66
2022/04/20 04:38:54;;;;;;;;;;;23.80;42.80;;;;;;1521735;78;705;-69
2022/04/20 04:40:56;;;;;;;;;;;23.90;42.90;;;;;;1511800;78;1198;-70
2022/04/20 04:42:58;;;;;;;;;;;23.90;42.90;;;;;;1514807;78;728;-67
2022/04/20 04:49:23;;;;;;;;;;;23.90;43.00;;;;;;1509309;78;1627;-66
2022/04/20 04:51:25;;;;;;;;;;;23.90;43.00;;;;;;1519970;78;1134;-68
2022/04/20 04:53:27;;;;;;;;;;;23.90;43.00;;;;;;1518412;78;679;-69
2022/04/20 04:55:29;;;;;;;;;;;23.90;43.00;;;;;;1512322;78;1922;-66
2022/04/20 04:57:31;;;;;;;;;;;23.90;43.00;;;;;;1506120;78;769;-66
2022/04/20 04:59:33;;;;;;;;;;;23.90;43.00;;;;;;1509362;78;654;-66
2022/04/20 05:01:34;;;;;;;;;;;23.90;43.10;;;;;;1515446;78;733;-66
2022/04/20 05:03:36;;;;;;;;;;;23.90;43.10;;;;;;1513357;78;667;-66
2022/04/20 05:05:40;;;;;;;;;;;23.90;43.10;;;;;;1519106;78;747;-68
2022/04/20 05:07:42;;;;;;;;;;;23.90;43.30;;;;;;1517459;78;785;-66
2022/04/20 05:09:44;;;;;;;;;;;23.90;43.30;;;;;;1515055;77;1139;-66
2022/04/20 05:11:48;;;;;;;;;;;23.90;43.20;;;;;;1507579;78;772;-66
2022/04/20 05:13:50;;;;;;;;;;;23.90;43.40;;;;;;1510583;78;1702;-64
2022/04/20 05:15:51;;;;;;;;;;;23.90;43.30;;;;;;1508521;78;1947;-66
2022/04/20 05:17:53;;;;;;;;;;;24.00;43.40;;;;;;1507732;78;691;-67
2022/04/20 05:19:55;;;;;;;;;;;23.90;43.40;;;;;;1504129;79;1207;-67
2022/04/20 05:21:57;;;;;;;;;;;24.00;43.40;;;;;;1505131;78;744;-68
2022/04/20 05:23:59;;;;;;;;;;;24.00;43.30;;;;;;1514458;78;676;-67
2022/04/20 05:26:01;;;;;;;;;;;24.00;43.30;;;;;;1501829;78;706;-66
2022/04/20 05:28:03;;;;;;;;;;;24.00;43.30;;;;;;1497482;78;742;-66
2022/04/20 05:30:05;;;;;;;;;;;24.00;43.10;;;;;;1489231;78;1157;-66
2022/04/20 05:32:08;;;;;;;;;;;24.00;43.10;;;;;;1489137;78;743;-66
2022/04/20 05:34:10;;;;;;;;;;;24.00;43.00;;;;;;1490347;78;716;-66
2022/04/20 05:36:12;;;;;;;;;;;24.00;43.00;;;;;;1503085;78;1936;-67
2022/04/20 05:42:53;;;;;;;;;;;24.00;43.00;;;;;;1513744;77;745;-67
2022/04/20 05:44:55;;;;;;;;;;;24.10;43.10;;;;;;1514538;77;703;-69
2022/04/20 05:46:57;;;;;;;;;;;24.00;43.00;;;;;;1519064;77;739;-65
2022/04/20 05:49:00;;;;;;;;;;;24.00;43.00;;;;;;1515512;77;673;-67
2022/04/20 05:51:02;;;;;;;;;;;24.00;43.00;;;;;;1506948;79;1172;-66
2022/04/20 05:53:03;;;;;;;;;;;24.10;43.10;;;;;;1503859;79;750;-68
2022/04/20 05:55:06;;;;;;;;;;;24.00;43.00;;;;;;1514253;77;686;-67
2022/04/20 05:57:08;;;;;;;;;;;24.10;43.10;;;;;;1488293;80;1936;-67
2022/04/20 05:59:10;;;;;;;;;;;24.00;43.00;;;;;;1490399;78;700;-66
2022/04/20 06:01:11;;;;;;;;;;;24.00;42.90;;;;;;1491990;78;1146;-64
2022/04/20 06:03:13;;;;;;;;;;;24.10;43.10;;;;;;1495178;78;737;-64
2022/04/20 06:05:15;;;;;;;;;;;24.10;43.00;;;;;;1488042;78;643;-65
2022/04/20 06:07:17;;;;;;;;;;;24.00;42.80;;;;;;1503589;78;642;-65
2022/04/20 06:09:19;;;;;;;;;;;24.00;42.80;;;;;;1509692;78;642;-69
2022/04/20 06:11:21;;;;;;;;;;;24.20;42.90;;;;;;1526963;77;1122;-67
2022/04/20 06:13:23;;;;;;;;;;;24.10;42.80;;;;;;1512157;77;806;-67
2022/04/20 06:15:25;;;;;;;;;;;24.20;42.90;;;;;;1506984;79;651;-67
2022/04/20 06:17:27;;;;;;;;;;;24.20;42.90;;;;;;1513407;78;1946;-66
2022/04/20 06:19:29;;;;;;;;;;;24.10;43.00;;;;;;1511409;78;676;-66
2022/04/20 06:21:31;;;;;;;;;;;24.10;42.90;;;;;;1514838;77;1097;-65
2022/04/20 06:23:33;;;;;;;;;;;24.10;42.90;;;;;;1533437;77;710;-66
2022/04/20 06:25:35;;;;;;;;;;;24.20;42.90;;;;;;1493041;78;674;-66
2022/04/20 06:27:36;;;;;;;;;;;24.20;42.90;;;;;;1496744;78;564;-66
2022/04/20 06:29:38;;;;;;;;;;;24.10;42.90;;;;;;1516122;77;1159;-66
2022/04/20 06:31:42;;;;;;;;;;;24.10;42.90;;;;;;1514489;77;665;-64
2022/04/20 06:33:44;;;;;;;;;;;24.10;42.80;;;;;;1487751;78;734;-66
2022/04/20 06:35:46;;;;;;;;;;;24.20;42.80;;;;;;1502347;78;665;-64
2022/04/20 06:37:48;;;;;;;;;;;24.20;42.90;;;;;;1522724;78;1906;-67
2022/04/20 06:39:50;;;;;;;;;;;24.20;42.90;;;;;;1522713;78;1145;-66
2022/04/20 06:41:52;;;;;;;;;;;24.10;42.90;;;;;;1522873;78;664;-65
2022/04/20 06:43:54;;;;;;;;;;;24.20;42.90;;;;;;1519239;78;691;-65
2022/04/20 06:45:57;;;;;;;;;;;24.30;43.00;;;;;;1514433;78;651;-65
2022/04/20 06:47:59;;;;;;;;;;;24.20;42.90;;;;;;1489905;80;714;-67
2022/04/20 06:50:01;;;;;;;;;;;24.20;43.20;;;;;;1514292;78;1179;-65
2022/04/20 06:59:04;;;;;;;;;;;24.40;41.90;;;;;;1494475;79;1604;-66
2022/04/20 07:01:07;;;;;;;;;;;24.60;41.30;;;;;;1499735;78;1105;-66
2022/04/20 07:03:09;;;;;;;;;;;24.80;40.70;;;;;;1513499;77;718;-70
2022/04/20 07:05:11;;;;;;;;;;;24.70;40.20;;;;;;1508544;78;784;-71
2022/04/20 07:07:13;;;;;;;;;;;24.70;40.00;;;;;;1501771;78;644;-69
2022/04/20 07:09:15;;;;;;;;;;;24.60;40.00;;;;;;1517764;77;704;-70
2022/04/20 07:11:17;;;;;;;;;;;24.50;39.90;;;;;;1482185;77;2090;-63
2022/04/20 07:13:19;;;;;;;;;;;24.40;40.00;;;;;;1500011;78;730;-63
2022/04/20 07:15:21;;;;;;;;;;;24.50;40.10;;;;;;1496826;78;802;-63
2022/04/20 07:17:23;;;;;;;;;;;24.40;39.80;;;;;;1500712;78;1942;-63
2022/04/20 07:19:25;;;;;;;;;;;24.40;39.60;;;;;;1496724;78;794;-63
2022/04/20 07:21:27;;;;;;;;;;;24.40;39.40;;;;;;1519293;77;1143;-67
2022/04/20 07:23:28;;;;;;;;;;;24.40;39.70;;;;;;1526404;77;745;-65
2022/04/20 07:25:30;;;;;;;;;;;24.40;39.40;;;;;;1522712;77;732;-66
2022/04/20 07:27:32;;;;;;;;;;;24.30;39.00;;;;;;1522080;77;728;-62
2022/04/20 07:29:34;;;;;;;;;;;24.30;39.40;;;;;;1523814;77;698;-62
2022/04/20 07:31:36;;;;;;;;;;;24.40;39.00;;;;;;1528148;77;1120;-63
2022/04/20 07:33:38;;;;;;;;;;;24.30;39.20;;;;;;1522401;77;755;-64
2022/04/20 07:35:40;;;;;;;;;;;24.40;38.80;;;;;;1522627;77;682;-64
2022/04/20 07:37:41;;;;;;;;;;;24.30;39.20;;;;;;1522147;77;1937;-65
2022/04/20 07:39:43;;;;;;;;;;;24.30;39.30;;;;;;1522125;77;692;-68
2022/04/20 07:41:45;;;;;;;;;;;24.50;39.20;;;;;;1526698;77;1107;-64
2022/04/20 07:43:49;;;;;;;;;;;24.50;38.80;;;;;;1522265;77;681;-63
2022/04/20 07:45:51;;;;;;;;;;;24.70;39.10;;;;;;1526517;77;756;-63
2022/04/20 07:47:53;;;;;;;;;;;24.70;38.70;;;;;;1522241;77;759;-65
2022/04/20 07:52:18;;;;;;;;;;;24.80;37.80;;;;;;1522073;77;1637;-67
2022/04/20 07:54:21;;;;;;;;;;;24.60;37.30;;;;;;1521699;77;1173;-71
2022/04/20 07:56:23;;;;;;;;;;;24.50;37.60;;;;;;1512389;77;1898;-66
2022/04/20 07:58:25;;;;;;;;;;;24.40;37.70;;;;;;1522259;77;693;-68
2022/04/20 08:00:27;;;;;;;;;;;24.30;38.10;;;;;;1522227;77;1143;-64
2022/04/20 08:02:29;;;;;;;;;;;24.30;38.40;;;;;;1522345;78;704;-70
2022/04/20 08:04:31;;;;;;;;;;;24.30;38.60;;;;;;1522418;78;655;-65
2022/04/20 08:06:33;;;;;;;;;;;24.30;38.80;;;;;;1522758;77;660;-67
2022/04/20 08:08:35;;;;;;;;;;;24.30;39.00;;;;;;1522417;78;678;-66
2022/04/20 08:10:37;;;;;;;;;;;24.20;39.00;;;;;;1522328;78;1131;-69
2022/04/20 08:12:40;;;;;;;;;;;24.30;39.30;;;;;;1522333;78;706;-67
2022/04/20 08:14:42;;;;;;;;;;;24.30;39.00;;;;;;1522909;77;676;-69
2022/04/20 08:16:44;;;;;;;;;;;24.60;38.60;;;;;;1522441;78;1938;-67
2022/04/20 08:18:45;;;;;;;;;;;24.70;38.20;;;;;;1522324;78;656;-68
2022/04/20 08:20:48;;;;;;;;;;;24.70;37.90;;;;;;1522522;78;1145;-64
2022/04/20 08:22:49;;;;;;;;;;;24.70;38.10;;;;;;1526369;77;733;-67
2022/04/20 08:24:52;;;;;;;;;;;24.70;38.50;;;;;;1529373;77;679;-65
2022/04/20 08:26:55;;;;;;;;;;;24.70;38.40;;;;;;1519503;77;672;-67
2022/04/20 08:28:56;;;;;;;;;;;24.80;38.10;;;;;;1522183;77;689;-65
2022/04/20 08:30:58;;;;;;;;;;;24.80;38.10;;;;;;1525114;77;1267;-65
2022/04/20 08:33:00;;;;;;;;;;;24.80;38.10;;;;;;1525879;77;704;-69
2022/04/20 08:35:02;;;;;;;;;;;24.70;37.40;;;;;;1522786;77;685;-67
2022/04/20 08:37:04;;;;;;;;;;;24.70;37.30;;;;;;1526049;77;1945;-66
2022/04/20 08:39:06;;;;;;;;;;;24.70;37.70;;;;;;1535067;77;712;-68
2022/04/20 08:41:08;;;;;;;;;;;24.60;37.20;;;;;;1528534;77;1117;-64
2022/04/20 08:43:09;;;;;;;;;;;24.70;37.30;;;;;;1538169;77;735;-63
2022/04/20 08:45:11;;;;;;;;;;;24.70;37.20;;;;;;1522330;78;637;-64
2022/04/20 08:47:18;;;;;;;;;;;24.60;37.00;;;;;;1522552;78;573;-64
2022/04/20 08:49:19;;;;;;;;;;;24.70;36.90;;;;;;1532941;77;871;-63
2022/04/20 08:51:21;;;;;;;;;;;24.70;36.70;;;;;;1534438;77;1160;-63
2022/04/20 08:53:23;;;;;;;;;;;24.70;36.50;;;;;;1535369;77;747;-64
2022/04/20 08:55:26;;;;;;;;;;;24.60;36.30;;;;;;1528833;77;683;-67
2022/04/20 08:57:29;;;;;;;;;;;24.70;36.40;;;;;;1533268;77;1932;-65
2022/04/20 08:59:31;;;;;;;;;;;24.70;36.10;;;;;;1527590;77;663;-65
2022/04/20 09:01:33;;;;;;;;;;;24.70;36.10;;;;;;1538174;77;1148;-66
2022/04/20 09:03:35;;;;;;;;;;;24.60;35.80;;;;;;1535316;77;718;-65
2022/04/20 09:05:37;;;;;;;;;;;24.70;35.80;;;;;;1538685;77;683;-64
2022/04/20 09:07:39;;;;;;;;;;;24.70;35.70;;;;;;1537327;77;678;-64
2022/04/20 09:09:41;;;;;;;;;;;24.70;35.70;;;;;;1533097;77;715;-64
2022/04/20 09:11:43;;;;;;;;;;;24.70;35.50;;;;;;1534186;77;1095;-64
2022/04/20 09:13:47;;;;;;;;;;;24.70;35.40;;;;;;1522339;77;705;-64
2022/04/20 09:15:50;;;;;;;;;;;24.80;35.20;;;;;;1522205;78;1535;-61
2022/04/20 09:17:52;;;;;;;;;;;24.70;35.20;;;;;;1508299;78;1902;-63
2022/04/20 09:19:55;;;;;;;;;;;24.80;35.00;;;;;;1523119;77;728;-66
2022/04/20 09:21:57;;;;;;;;;;;24.70;35.00;;;;;;1524539;77;739;-63
2022/04/20 09:24:06;;;;;;;;;;;24.80;34.80;;;;;;1539463;77;706;-63
2022/04/20 09:26:08;;;;;;;;;;;24.80;34.70;;;;;;1522844;77;664;-66
2022/04/20 09:28:10;;;;;;;;;;;24.80;34.60;;;;;;1539673;77;732;-64
2022/04/20 09:30:17;;;;;;;;;;;24.80;34.50;;;;;;1512929;77;1135;-66
2022/04/20 09:32:18;;;;;;;;;;;24.80;34.30;;;;;;1530398;77;1336;-64
2022/04/20 09:34:27;;;;;;;;;;;24.80;34.40;;;;;;1523255;77;1656;-66
2022/04/20 09:36:49;;;;;;;;;;;24.80;35.10;;;;;;1520132;77;695;-66
2022/04/20 09:39:03;;;;;;;;;;;24.80;34.50;;;;;;1517548;77;1914;-64
2022/04/20 09:41:06;;;;;;;;;;;24.80;34.30;;;;;;1527116;77;1134;-65
2022/04/20 09:43:10;;;;;;;;;;;24.80;34.60;;;;;;1526317;77;626;-64
2022/04/20 09:45:12;;;;;;;;;;;24.80;34.50;;;;;;1521682;77;1669;-64
2022/04/20 09:49:34;;;;;;;;;;;24.80;34.30;;;;;;1534465;77;640;-64
2022/04/20 09:51:40;;;;;;;;;;;24.80;34.40;;;;;;1533720;77;1183;-65
2022/04/20 09:53:43;;;;;;;;;;;24.90;34.70;;;;;;1530941;77;730;-62
2022/04/20 09:55:45;;;;;;;;;;;24.90;34.60;;;;;;1523976;77;740;-62
2022/04/20 09:57:47;;;;;;;;;;;25.00;33.90;;;;;;1531530;77;1933;-61
2022/04/20 09:59:56;;;;;;;;;;;24.90;33.90;;;;;;1536465;77;732;-65
2022/04/20 10:01:58;;;;;;;;;;;25.00;33.80;;;;;;1522943;77;706;-63
2022/04/20 10:04:00;;;;;;;;;;;24.90;34.20;;;;;;1533846;77;716;-65
2022/04/20 10:06:02;;;;;;;;;;;24.80;33.80;;;;;;1530536;77;709;-65
2022/04/20 10:08:05;;;;;;;;;;;24.80;33.80;;;;;;1528494;77;702;-63
2022/04/20 10:10:07;;;;;;;;;;;24.80;33.90;;;;;;1525954;77;1125;-63
2022/04/20 10:12:09;;;;;;;;;;;24.80;34.10;;;;;;1529509;77;730;-66
2022/04/20 10:16:31;;;;;;;;;;;24.90;34.50;;;;;;1524403;77;1655;-61
2022/04/20 10:18:39;;;;;;;;;;;24.80;34.40;;;;;;1527111;77;1941;-62
2022/04/20 10:20:43;;;;;;;;;;;24.80;34.40;;;;;;1526017;77;1190;-67
2022/04/20 10:22:45;;;;;;;;;;;24.80;34.70;;;;;;1526742;77;739;-63
2022/04/20 10:24:46;;;;;;;;;;;24.80;34.50;;;;;;1524984;77;758;-63
2022/04/20 10:26:48;;;;;;;;;;;24.80;34.50;;;;;;1538053;77;777;-63
2022/04/20 10:28:52;;;;;;;;;;;24.90;34.40;;;;;;1530051;77;760;-64
2022/04/20 10:31:05;;;;;;;;;;;24.90;34.50;;;;;;1531231;77;1989;-63
2022/04/20 10:33:08;;;;;;;;;;;25.00;34.50;;;;;;1530793;77;1911;-63
2022/04/20 10:35:09;;;;;;;;;;;25.10;34.30;;;;;;1533430;77;655;-65
2022/04/20 10:37:13;;;;;;;;;;;25.10;34.20;;;;;;1537186;77;749;-63
2022/04/20 10:39:23;;;;;;;;;;;25.20;33.90;;;;;;1525807;77;1936;-64
2022/04/20 10:41:24;;;;;;;;;;;25.20;33.90;;;;;;1533879;77;1094;-62
2022/04/20 10:43:27;;;;;;;;;;;25.30;33.90;;;;;;1530044;77;686;-62
2022/04/20 10:45:29;;;;;;;;;;;25.30;33.70;;;;;;1533876;77;765;-62
2022/04/20 10:47:32;;;;;;;;;;;25.20;33.80;;;;;;1502777;78;1264;-62
2022/04/20 10:49:34;;;;;;;;;;;25.30;33.70;;;;;;1522305;78;674;-63
2022/04/20 10:51:43;;;;;;;;;;;25.40;33.70;;;;;;1526002;77;1149;-61
2022/04/20 10:53:46;;;;;;;;;;;25.40;33.60;;;;;;1522364;77;709;-69
2022/04/20 10:55:49;;;;;;;;;;;25.40;29.80;;;;;;1522718;77;684;-72
2022/04/20 10:57:53;;;;;;;;;;;25.20;27.20;;;;;;1522265;78;1925;-71
2022/04/20 11:00:13;;;;;;;;;;;24.70;24.10;;;;;;1523692;77;711;-71
2022/04/20 11:02:15;;;;;;;;;;;24.40;27.40;;;;;;1522773;78;684;-72
2022/04/20 11:04:18;;;;;;;;;;;24.30;25.50;;;;;;1522516;78;696;-71
2022/04/20 11:06:20;;;;;;;;;;;24.00;27.30;;;;;;1520902;78;1729;-71
2022/04/20 11:08:25;;;;;;;;;;;23.90;27.80;;;;;;1522467;77;718;-74
2022/04/20 11:10:27;;;;;;;;;;;23.80;24.40;;;;;;1518245;77;1121;-72
2022/04/20 11:19:34;;;;;;;;;;;23.00;25.80;;;;;;1521942;77;1648;-68
2022/04/20 11:21:36;;;;;;;;;;;23.00;26.30;;;;;;1527890;77;1156;-69
2022/04/20 11:23:52;;;;;;;;;;;22.90;23.00;;;;;;1522006;78;668;-71
2022/04/20 11:25:54;;;;;;;;;;;22.90;25.20;;;;;;1520594;77;976;-68
2022/04/20 11:27:58;;;;;;;;;;;22.80;23.30;;;;;;1522552;78;717;-72
2022/04/20 11:30:00;;;;;;;;;;;22.60;22.40;;;;;;1522204;77;2104;-70
2022/04/20 11:32:02;;;;;;;;;;;22.60;24.40;;;;;;1522525;78;884;-73
2022/04/20 11:34:05;;;;;;;;;;;22.60;22.60;;;;;;1522316;78;737;-68
2022/04/20 11:36:07;;;;;;;;;;;22.50;24.20;;;;;;1522152;78;675;-69
2022/04/20 11:38:09;;;;;;;;;;;22.60;25.50;;;;;;1517391;77;1917;-69
2022/04/20 11:40:12;;;;;;;;;;;22.60;25.30;;;;;;1522327;78;1159;-70
2022/04/20 11:42:14;;;;;;;;;;;22.50;24.40;;;;;;1522358;78;726;-67
2022/04/20 11:44:27;;;;;;;;;;;22.40;21.50;;;;;;1522436;78;601;-68
2022/04/20 11:46:31;;;;;;;;;;;22.20;23.80;;;;;;1522713;77;724;-68
2022/04/20 11:48:33;;;;;;;;;;;22.20;22.30;;;;;;1522433;78;757;-68
2022/04/20 11:50:34;;;;;;;;;;;22.00;23.10;;;;;;1526469;77;1116;-69
2022/04/20 11:52:36;;;;;;;;;;;22.00;24.00;;;;;;1522389;78;669;-71
2022/04/20 11:54:39;;;;;;;;;;;22.00;24.30;;;;;;1521538;78;689;-69
2022/04/20 11:56:41;;;;;;;;;;;22.00;24.20;;;;;;1522917;77;751;-69
2022/04/20 11:58:49;;;;;;;;;;;21.90;21.80;;;;;;1522075;77;1925;-69
2022/04/20 12:01:04;;;;;;;;;;;21.80;23.40;;;;;;1529605;77;1131;-68
2022/04/20 12:03:06;;;;;;;;;;;21.70;23.90;;;;;;1530258;77;854;-68
2022/04/20 12:05:08;;;;;;;;;;;21.80;23.90;;;;;;1525264;77;724;-68
2022/04/20 12:07:10;;;;;;;;;;;21.70;22.90;;;;;;1528413;77;713;-67
2022/04/20 12:09:12;;;;;;;;;;;21.60;22.50;;;;;;1524112;77;757;-67
2022/04/20 12:11:15;;;;;;;;;;;21.60;23.70;;;;;;1522184;78;1154;-70
2022/04/20 12:13:17;;;;;;;;;;;21.60;24.90;;;;;;1522859;77;788;-67
2022/04/20 12:15:20;;;;;;;;;;;21.60;24.00;;;;;;1496635;79;1166;-67
2022/04/20 12:17:22;;;;;;;;;;;21.60;23.90;;;;;;1498489;78;686;-68
2022/04/20 12:19:24;;;;;;;;;;;21.50;22.40;;;;;;1496019;78;1912;-68
2022/04/20 12:21:36;;;;;;;;;;;21.50;24.50;;;;;;1496606;78;1200;-70
2022/04/20 12:23:38;;;;;;;;;;;21.50;23.60;;;;;;1498970;78;688;-69
2022/04/20 12:25:40;;;;;;;;;;;21.50;24.90;;;;;;1489433;78;741;-69
2022/04/20 12:27:56;;;;;;;;;;;21.50;23.80;;;;;;1469355;79;668;-68
2022/04/20 12:29:58;;;;;;;;;;;21.50;23.90;;;;;;1498708;78;1140;-68
2022/04/20 12:32:00;;;;;;;;;;;21.50;24.20;;;;;;1500226;78;689;-67
2022/04/20 12:34:03;;;;;;;;;;;21.60;24.90;;;;;;1494952;78;682;-69
2022/04/20 12:36:08;;;;;;;;;;;21.70;25.20;;;;;;1498223;78;765;-68
2022/04/20 12:38:10;;;;;;;;;;;21.70;24.40;;;;;;1502155;78;1912;-68
2022/04/20 12:40:18;;;;;;;;;;;21.60;22.50;;;;;;1498971;78;1118;-69
2022/04/20 12:42:20;;;;;;;;;;;21.50;21.80;;;;;;1495742;78;679;-67
2022/04/20 12:44:38;;;;;;;;;;;21.50;23.40;;;;;;1497005;78;673;-69
2022/04/20 12:46:40;;;;;;;;;;;21.40;21.50;;;;;;1497003;79;729;-69